sensor_id;sensor_type;location;lat;lon;timestamp;pressure;altitude;pressure_sealevel;temperature;humidity
61136;BME280;47021;51.340;12.432;2024-01-30T00:02:10;101525.13;;;10.47;46.62
61136;BME280;47021;51.340;12.432;2024-01-30T00:04:48;101531.72;;;10.38;46.45
61136;BME280;47021;51.340;12.432;2024-01-30T00:07:15;101522.78;;;10.28;46.84
61136;BME280;47021;51.340;12.432;2024-01-30T00:09:48;101523.09;;;10.08;47.13
61136;BME280;47021;51.340;12.432;2024-01-30T00:12:14;101527.41;;;10.23;47.11
61136;BME280;47021;51.340;12.432;2024-01-30T00:14:47;101514.47;;;10.06;47.05
61136;BME280;47021;51.340;12.432;2024-01-30T00:17:12;101525.66;;;10.24;46.82
61136;BME280;47021;51.340;12.432;2024-01-30T00:19:44;101523.91;;;10.09;47.01
61136;BME280;47021;51.340;12.432;2024-01-30T00:22:12;101526.41;;;9.96;47.36
61136;BME280;47021;51.340;12.432;2024-01-30T00:24:41;101523.22;;;9.91;47.55
61136;BME280;47021;51.340;12.432;2024-01-30T00:27:12;101527.25;;;9.97;47.55
61136;BME280;47021;51.340;12.432;2024-01-30T00:32:36;101519.22;;;10.00;47.20
61136;BME280;47021;51.340;12.432;2024-01-30T00:35:03;101515.00;;;9.97;47.09
61136;BME280;47021;51.340;12.432;2024-01-30T00:40:14;101527.34;;;9.79;47.64
61136;BME280;47021;51.340;12.432;2024-01-30T00:42:41;101523.34;;;9.74;47.73
61136;BME280;47021;51.340;12.432;2024-01-30T00:45:13;101519.97;;;9.72;47.62
61136;BME280;47021;51.340;12.432;2024-01-30T00:47:46;101514.75;;;9.72;47.60
61136;BME280;47021;51.340;12.432;2024-01-30T00:50:19;101509.13;;;9.64;47.67
61136;BME280;47021;51.340;12.432;2024-01-30T00:52:52;101517.31;;;9.58;47.64
61136;BME280;47021;51.340;12.432;2024-01-30T00:55:24;101517.00;;;9.48;47.65
61136;BME280;47021;51.340;12.432;2024-01-30T01:03:50;101519.50;;;8.87;49.77
61136;BME280;47021;51.340;12.432;2024-01-30T01:06:20;101515.25;;;9.17;48.84
61136;BME280;47021;51.340;12.432;2024-01-30T01:16:52;101508.72;;;9.85;47.01
61136;BME280;47021;51.340;12.432;2024-01-30T01:19:29;101495.56;;;10.03;46.39
61136;BME280;47021;51.340;12.432;2024-01-30T01:22:00;101497.50;;;10.15;46.17
61136;BME280;47021;51.340;12.432;2024-01-30T01:24:33;101498.75;;;9.78;46.77
61136;BME280;47021;51.340;12.432;2024-01-30T01:27:13;101496.50;;;9.72;47.16
61136;BME280;47021;51.340;12.432;2024-01-30T01:29:38;101489.09;;;9.80;46.53
61136;BME280;47021;51.340;12.432;2024-01-30T01:32:15;101489.38;;;9.89;46.88
61136;BME280;47021;51.340;12.432;2024-01-30T01:34:46;101490.72;;;9.97;46.48
61136;BME280;47021;51.340;12.432;2024-01-30T01:37:14;101482.16;;;10.09;46.42
61136;BME280;47021;51.340;12.432;2024-01-30T01:39:47;101484.00;;;10.07;46.36
61136;BME280;47021;51.340;12.432;2024-01-30T01:42:13;101483.69;;;10.13;46.46
61136;BME280;47021;51.340;12.432;2024-01-30T01:47:23;101478.03;;;10.05;46.33
61136;BME280;47021;51.340;12.432;2024-01-30T01:52:47;101476.28;;;10.05;46.13
61136;BME280;47021;51.340;12.432;2024-01-30T01:55:19;101478.28;;;10.30;45.49
61136;BME280;47021;51.340;12.432;2024-01-30T01:57:48;101481.63;;;10.18;46.08
61136;BME280;47021;51.340;12.432;2024-01-30T02:00:14;101478.97;;;10.33;45.31
61136;BME280;47021;51.340;12.432;2024-01-30T02:02:56;101484.09;;;10.35;45.75
61136;BME280;47021;51.340;12.432;2024-01-30T02:05:27;101485.84;;;10.34;45.49
61136;BME280;47021;51.340;12.432;2024-01-30T02:07:56;101484.53;;;10.27;45.78
61136;BME280;47021;51.340;12.432;2024-01-30T02:10:23;101476.84;;;10.10;46.06
61136;BME280;47021;51.340;12.432;2024-01-30T02:12:49;101487.31;;;9.80;46.90
61136;BME280;47021;51.340;12.432;2024-01-30T02:17:47;101474.09;;;10.27;45.66
61136;BME280;47021;51.340;12.432;2024-01-30T02:20:16;101479.41;;;10.26;45.74
61136;BME280;47021;51.340;12.432;2024-01-30T02:22:52;101477.16;;;10.34;45.47
61136;BME280;47021;51.340;12.432;2024-01-30T02:30:47;101479.22;;;10.15;46.23
61136;BME280;47021;51.340;12.432;2024-01-30T02:35:56;101479.13;;;10.16;45.96
61136;BME280;47021;51.340;12.432;2024-01-30T02:38:34;101483.75;;;10.11;46.22
61136;BME280;47021;51.340;12.432;2024-01-30T02:41:05;101479.53;;;10.09;46.13
61136;BME280;47021;51.340;12.432;2024-01-30T02:43:41;101480.91;;;10.30;45.75
61136;BME280;47021;51.340;12.432;2024-01-30T02:46:14;101477.28;;;10.03;46.37
61136;BME280;47021;51.340;12.432;2024-01-30T02:48:57;101476.84;;;9.66;46.88
61136;BME280;47021;51.340;12.432;2024-01-30T02:51:24;101473.38;;;9.95;46.29
61136;BME280;47021;51.340;12.432;2024-01-30T02:53:52;101463.56;;;9.85;46.51
61136;BME280;47021;51.340;12.432;2024-01-30T02:56:19;101463.31;;;9.60;47.09
61136;BME280;47021;51.340;12.432;2024-01-30T02:59:00;101470.13;;;9.76;46.57
61136;BME280;47021;51.340;12.432;2024-01-30T03:01:44;101472.84;;;9.45;47.25
61136;BME280;47021;51.340;12.432;2024-01-30T03:04:16;101470.91;;;9.78;46.75
61136;BME280;47021;51.340;12.432;2024-01-30T03:09:36;101469.97;;;9.79;46.43
61136;BME280;47021;51.340;12.432;2024-01-30T03:12:02;101469.34;;;9.60;46.98
61136;BME280;47021;51.340;12.432;2024-01-30T03:14:36;101463.09;;;9.49;46.90
61136;BME280;47021;51.340;12.432;2024-01-30T03:17:04;101468.97;;;9.52;46.85
61136;BME280;47021;51.340;12.432;2024-01-30T03:19:29;101462.59;;;9.72;46.14
61136;BME280;47021;51.340;12.432;2024-01-30T03:22:00;101461.47;;;9.62;46.61
61136;BME280;47021;51.340;12.432;2024-01-30T03:27:09;101451.28;;;9.57;46.47
61136;BME280;47021;51.340;12.432;2024-01-30T03:32:21;101455.41;;;9.61;46.58
61136;BME280;47021;51.340;12.432;2024-01-30T03:34:53;101457.50;;;9.25;47.16
61136;BME280;47021;51.340;12.432;2024-01-30T03:40:03;101446.28;;;9.68;46.20
61136;BME280;47021;51.340;12.432;2024-01-30T03:45:05;101450.84;;;9.65;46.40
61136;BME280;47021;51.340;12.432;2024-01-30T03:47:43;101442.00;;;9.67;46.14
61136;BME280;47021;51.340;12.432;2024-01-30T03:50:22;101447.94;;;9.55;46.29
61136;BME280;47021;51.340;12.432;2024-01-30T03:55:47;101443.72;;;9.82;45.76
61136;BME280;47021;51.340;12.432;2024-01-30T03:58:13;101435.63;;;9.87;45.59
61136;BME280;47021;51.340;12.432;2024-01-30T04:00:54;101436.19;;;9.48;46.24
61136;BME280;47021;51.340;12.432;2024-01-30T04:03:25;101431.38;;;9.70;46.03
61136;BME280;47021;51.340;12.432;2024-01-30T04:08:34;101439.59;;;9.64;45.89
61136;BME280;47021;51.340;12.432;2024-01-30T04:11:02;101433.47;;;9.50;45.90
61136;BME280;47021;51.340;12.432;2024-01-30T04:13:46;101442.88;;;9.52;46.12
61136;BME280;47021;51.340;12.432;2024-01-30T04:16:18;101437.31;;;9.58;46.10
61136;BME280;47021;51.340;12.432;2024-01-30T04:18:56;101439.63;;;9.78;45.25
61136;BME280;47021;51.340;12.432;2024-01-30T04:21:21;101438.19;;;9.73;45.39
61136;BME280;47021;51.340;12.432;2024-01-30T04:23:59;101444.16;;;9.45;46.39
61136;BME280;47021;51.340;12.432;2024-01-30T04:26:24;101423.84;;;9.66;45.51
61136;BME280;47021;51.340;12.432;2024-01-30T04:28:49;101437.56;;;9.83;45.55
61136;BME280;47021;51.340;12.432;2024-01-30T04:31:28;101434.56;;;9.75;45.59
61136;BME280;47021;51.340;12.432;2024-01-30T04:33:59;101433.09;;;9.71;45.40
61136;BME280;47021;51.340;12.432;2024-01-30T04:36:25;101432.94;;;10.03;44.98
61136;BME280;47021;51.340;12.432;2024-01-30T04:38:56;101433.09;;;9.85;45.11
61136;BME280;47021;51.340;12.432;2024-01-30T04:41:34;101435.19;;;9.94;45.17
61136;BME280;47021;51.340;12.432;2024-01-30T04:44:01;101427.03;;;10.15;44.76
61136;BME280;47021;51.340;12.432;2024-01-30T04:46:35;101438.84;;;9.76;45.08
61136;BME280;47021;51.340;12.432;2024-01-30T04:49:01;101430.13;;;9.91;44.82
61136;BME280;47021;51.340;12.432;2024-01-30T04:51:32;101432.84;;;9.60;45.28
61136;BME280;47021;51.340;12.432;2024-01-30T04:53:57;101427.53;;;9.91;44.69
61136;BME280;47021;51.340;12.432;2024-01-30T04:56:26;101428.53;;;9.89;45.20
61136;BME280;47021;51.340;12.432;2024-01-30T04:58:58;101432.06;;;9.74;44.98
61136;BME280;47021;51.340;12.432;2024-01-30T05:01:27;101428.78;;;9.70;45.24
61136;BME280;47021;51.340;12.432;2024-01-30T05:03:58;101425.72;;;9.78;44.98
61136;BME280;47021;51.340;12.432;2024-01-30T05:06:25;101432.03;;;10.04;44.45
61136;BME280;47021;51.340;12.432;2024-01-30T05:09:09;101431.25;;;9.87;44.58
61136;BME280;47021;51.340;12.432;2024-01-30T05:11:49;101428.44;;;9.90;44.70
61136;BME280;47021;51.340;12.432;2024-01-30T05:17:06;101429.72;;;9.69;44.96
61136;BME280;47021;51.340;12.432;2024-01-30T05:19:44;101425.28;;;9.56;45.17
61136;BME280;47021;51.340;12.432;2024-01-30T05:22:17;101431.97;;;9.75;44.54
61136;BME280;47021;51.340;12.432;2024-01-30T05:24:49;101432.28;;;9.85;44.59
61136;BME280;47021;51.340;12.432;2024-01-30T05:27:31;101422.44;;;9.74;44.89
61136;BME280;47021;51.340;12.432;2024-01-30T05:30:09;101430.69;;;9.82;44.32
61136;BME280;47021;51.340;12.432;2024-01-30T05:32:34;101435.41;;;9.76;44.26
61136;BME280;47021;51.340;12.432;2024-01-30T05:35:18;101441.34;;;9.64;44.95
61136;BME280;47021;51.340;12.432;2024-01-30T05:37:55;101436.91;;;9.80;44.87
61136;BME280;47021;51.340;12.432;2024-01-30T05:40:27;101439.88;;;9.74;44.68
61136;BME280;47021;51.340;12.432;2024-01-30T05:43:04;101439.63;;;9.33;45.67
61136;BME280;47021;51.340;12.432;2024-01-30T05:45:34;101434.53;;;9.32;45.40
61136;BME280;47021;51.340;12.432;2024-01-30T05:48:01;101436.56;;;9.11;45.82
61136;BME280;47021;51.340;12.432;2024-01-30T05:50:36;101434.47;;;9.47;44.95
61136;BME280;47021;51.340;12.432;2024-01-30T05:53:08;101432.00;;;9.30;44.84
61136;BME280;47021;51.340;12.432;2024-01-30T05:55:34;101431.88;;;9.47;44.64
61136;BME280;47021;51.340;12.432;2024-01-30T05:58:06;101431.28;;;9.28;44.93
61136;BME280;47021;51.340;12.432;2024-01-30T06:00:37;101431.22;;;9.44;44.44
61136;BME280;47021;51.340;12.432;2024-01-30T06:03:17;101434.25;;;9.36;44.71
61136;BME280;47021;51.340;12.432;2024-01-30T06:05:43;101439.09;;;9.28;44.92
61136;BME280;47021;51.340;12.432;2024-01-30T06:08:15;101430.75;;;9.37;44.63
61136;BME280;47021;51.340;12.432;2024-01-30T06:10:40;101431.19;;;9.59;44.12
61136;BME280;47021;51.340;12.432;2024-01-30T06:13:06;101432.72;;;9.77;43.74
61136;BME280;47021;51.340;12.432;2024-01-30T06:15:44;101436.06;;;9.79;43.45
61136;BME280;47021;51.340;12.432;2024-01-30T06:18:10;101435.84;;;9.68;43.73
61136;BME280;47021;51.340;12.432;2024-01-30T06:20:37;101433.00;;;9.87;43.54
61136;BME280;47021;51.340;12.432;2024-01-30T06:23:02;101431.78;;;9.92;43.40
61136;BME280;47021;51.340;12.432;2024-01-30T06:25:33;101429.69;;;9.99;43.25
61136;BME280;47021;51.340;12.432;2024-01-30T06:28:03;101420.00;;;9.57;43.96
61136;BME280;47021;51.340;12.432;2024-01-30T06:30:29;101428.00;;;9.54;44.15
61136;BME280;47021;51.340;12.432;2024-01-30T06:32:56;101423.75;;;9.38;44.55
61136;BME280;47021;51.340;12.432;2024-01-30T06:35:22;101425.22;;;9.28;44.53
61136;BME280;47021;51.340;12.432;2024-01-30T06:37:48;101421.59;;;9.60;44.07
61136;BME280;47021;51.340;12.432;2024-01-30T06:40:21;101425.75;;;9.92;43.57
61136;BME280;47021;51.340;12.432;2024-01-30T06:42:48;101428.28;;;9.93;43.17
61136;BME280;47021;51.340;12.432;2024-01-30T06:45:19;101430.97;;;10.06;42.79
61136;BME280;47021;51.340;12.432;2024-01-30T06:50:28;101441.84;;;9.84;43.66
61136;BME280;47021;51.340;12.432;2024-01-30T06:52:54;101437.50;;;9.99;42.83
61136;BME280;47021;51.340;12.432;2024-01-30T06:58:07;101429.69;;;9.99;42.96
61136;BME280;47021;51.340;12.432;2024-01-30T07:00:40;101428.91;;;9.83;43.29
61136;BME280;47021;51.340;12.432;2024-01-30T07:05:59;101429.16;;;9.64;43.69
61136;BME280;47021;51.340;12.432;2024-01-30T07:14:12;101425.91;;;9.45;44.04
61136;BME280;47021;51.340;12.432;2024-01-30T07:58:06;101429.59;;;10.71;42.35
61136;BME280;47021;51.340;12.432;2024-01-30T08:39:56;101414.25;;;11.32;42.10
61136;BME280;47021;51.340;12.432;2024-01-30T11:10:09;101339.88;;;14.98;39.63
61136;BME280;47021;51.340;12.432;2024-01-30T11:12:38;101333.31;;;15.45;39.55
61136;BME280;47021;51.340;12.432;2024-01-30T11:23:05;101330.75;;;16.15;38.46
61136;BME280;47021;51.340;12.432;2024-01-30T11:25:43;101321.50;;;16.30;38.25
61136;BME280;47021;51.340;12.432;2024-01-30T11:28:21;101331.13;;;16.50;38.32
61136;BME280;47021;51.340;12.432;2024-01-30T11:31:02;101332.41;;;16.16;38.79
61136;BME280;47021;51.340;12.432;2024-01-30T11:33:30;101326.84;;;15.79;39.31
61136;BME280;47021;51.340;12.432;2024-01-30T11:35:56;101323.72;;;15.85;39.81
61136;BME280;47021;51.340;12.432;2024-01-30T11:38:22;101318.66;;;16.03;39.18
61136;BME280;47021;51.340;12.432;2024-01-30T11:43:29;101321.94;;;15.95;39.71
61136;BME280;47021;51.340;12.432;2024-01-30T11:45:55;101323.91;;;16.03;40.03
61136;BME280;47021;51.340;12.432;2024-01-30T11:48:22;101323.84;;;16.23;39.15
61136;BME280;47021;51.340;12.432;2024-01-30T11:50:58;101307.34;;;16.21;39.37
61136;BME280;47021;51.340;12.432;2024-01-30T11:53:30;101320.63;;;16.10;39.65
61136;BME280;47021;51.340;12.432;2024-01-30T11:56:00;101319.56;;;16.32;39.68
61136;BME280;47021;51.340;12.432;2024-01-30T11:58:31;101311.34;;;16.56;39.29
61136;BME280;47021;51.340;12.432;2024-01-30T12:00:57;101304.56;;;16.82;38.75
61136;BME280;47021;51.340;12.432;2024-01-30T12:03:31;101299.28;;;17.11;38.92
61136;BME280;47021;51.340;12.432;2024-01-30T12:05:57;101291.09;;;17.04;38.77
61136;BME280;47021;51.340;12.432;2024-01-30T12:08:30;101292.56;;;17.26;38.40
61136;BME280;47021;51.340;12.432;2024-01-30T12:11:06;101294.09;;;17.28;38.66
61136;BME280;47021;51.340;12.432;2024-01-30T12:13:32;101288.50;;;17.50;38.40
61136;BME280;47021;51.340;12.432;2024-01-30T12:16:00;101286.59;;;17.33;38.87
61136;BME280;47021;51.340;12.432;2024-01-30T12:18:38;101286.75;;;17.51;38.49
61136;BME280;47021;51.340;12.432;2024-01-30T12:21:06;101284.09;;;17.51;38.96
61136;BME280;47021;51.340;12.432;2024-01-30T12:23:33;101287.69;;;17.59;39.17
61136;BME280;47021;51.340;12.432;2024-01-30T19:33:36;101420.75;;;14.19;47.89
61136;BME280;47021;51.340;12.432;2024-01-30T19:36:12;101427.16;;;14.14;48.49
61136;BME280;47021;51.340;12.432;2024-01-30T19:38:37;101435.56;;;14.31;48.26
61136;BME280;47021;51.340;12.432;2024-01-30T19:41:03;101435.66;;;14.18;48.51
61136;BME280;47021;51.340;12.432;2024-01-30T19:43:29;101432.06;;;14.08;48.17
61136;BME280;47021;51.340;12.432;2024-01-30T19:48:37;101445.56;;;14.14;48.18
61136;BME280;47021;51.340;12.432;2024-01-30T19:51:17;101446.88;;;14.09;48.63
61136;BME280;47021;51.340;12.432;2024-01-30T19:53:43;101453.41;;;13.92;49.27
61136;BME280;47021;51.340;12.432;2024-01-30T19:56:11;101448.84;;;13.83;49.13
61136;BME280;47021;51.340;12.432;2024-01-30T19:58:43;101448.66;;;14.08;49.09
61136;BME280;47021;51.340;12.432;2024-01-30T20:01:21;101456.16;;;14.02;48.85
61136;BME280;47021;51.340;12.432;2024-01-30T20:03:48;101458.09;;;14.00;48.87
61136;BME280;47021;51.340;12.432;2024-01-30T20:06:15;101456.03;;;13.92;49.54
61136;BME280;47021;51.340;12.432;2024-01-30T20:08:44;101457.97;;;14.12;49.23
61136;BME280;47021;51.340;12.432;2024-01-30T20:11:19;101461.09;;;14.29;48.50
61136;BME280;47021;51.340;12.432;2024-01-30T20:13:44;101457.63;;;14.17;48.92
61136;BME280;47021;51.340;12.432;2024-01-30T20:18:54;101464.91;;;14.13;48.96
61136;BME280;47021;51.340;12.432;2024-01-30T20:21:19;101461.66;;;14.10;49.25
61136;BME280;47021;51.340;12.432;2024-01-30T20:23:50;101469.63;;;14.32;48.80
61136;BME280;47021;51.340;12.432;2024-01-30T20:26:15;101467.84;;;14.44;48.36
61136;BME280;47021;51.340;12.432;2024-01-30T20:28:41;101472.00;;;14.35;48.82
61136;BME280;47021;51.340;12.432;2024-01-30T20:31:07;101473.06;;;14.33;48.91
61136;BME280;47021;51.340;12.432;2024-01-30T20:36:35;101479.47;;;14.18;49.32
61136;BME280;47021;51.340;12.432;2024-01-30T20:39:07;101486.41;;;14.19;49.38
61136;BME280;47021;51.340;12.432;2024-01-30T20:41:37;101484.38;;;14.11;49.62
61136;BME280;47021;51.340;12.432;2024-01-30T20:44:05;101485.78;;;14.15;49.62
61136;BME280;47021;51.340;12.432;2024-01-30T20:49:30;101484.50;;;14.21;49.88
61136;BME280;47021;51.340;12.432;2024-01-30T20:52:08;101486.38;;;14.07;49.98
61136;BME280;47021;51.340;12.432;2024-01-30T20:54:55;101496.38;;;14.37;49.44
61136;BME280;47021;51.340;12.432;2024-01-30T20:57:27;101490.03;;;14.40;49.65
61136;BME280;47021;51.340;12.432;2024-01-30T20:59:59;101491.72;;;14.41;50.10
61136;BME280;47021;51.340;12.432;2024-01-30T21:02:32;101494.81;;;14.35;50.40
61136;BME280;47021;51.340;12.432;2024-01-30T21:04:58;101496.41;;;14.48;49.75
61136;BME280;47021;51.340;12.432;2024-01-30T21:07:35;101499.13;;;14.58;49.88
61136;BME280;47021;51.340;12.432;2024-01-30T21:10:02;101510.97;;;14.41;50.14
61136;BME280;47021;51.340;12.432;2024-01-30T21:12:43;101503.97;;;14.29;50.36
61136;BME280;47021;51.340;12.432;2024-01-30T21:15:15;101501.25;;;14.31;50.79
61136;BME280;47021;51.340;12.432;2024-01-30T21:17:41;101497.28;;;14.14;50.80
61136;BME280;47021;51.340;12.432;2024-01-30T21:22:56;101498.19;;;14.37;50.86
61136;BME280;47021;51.340;12.432;2024-01-30T21:25:21;101498.63;;;14.42;50.84
61136;BME280;47021;51.340;12.432;2024-01-30T21:28:07;101493.69;;;14.26;51.50
61136;BME280;47021;51.340;12.432;2024-01-30T21:33:09;101490.97;;;14.28;51.60
61136;BME280;47021;51.340;12.432;2024-01-30T21:35:41;101490.97;;;14.28;51.59
61136;BME280;47021;51.340;12.432;2024-01-30T21:38:17;101486.88;;;14.24;51.58
61136;BME280;47021;51.340;12.432;2024-01-30T21:46:22;101478.94;;;14.47;51.16
61136;BME280;47021;51.340;12.432;2024-01-30T21:52:09;101486.81;;;14.47;50.86
61136;BME280;47021;51.340;12.432;2024-01-30T21:57:45;101482.88;;;14.42;51.02
61136;BME280;47021;51.340;12.432;2024-01-30T22:02:44;101485.72;;;14.28;51.42
61136;BME280;47021;51.340;12.432;2024-01-30T22:05:11;101485.66;;;14.16;52.00
61136;BME280;47021;51.340;12.432;2024-01-30T22:07:42;101477.97;;;14.37;51.25
61136;BME280;47021;51.340;12.432;2024-01-30T22:10:10;101479.13;;;14.22;51.96
61136;BME280;47021;51.340;12.432;2024-01-30T22:12:50;101476.25;;;14.14;51.80
61136;BME280;47021;51.340;12.432;2024-01-30T22:15:21;101482.19;;;14.05;52.03
